sensor_id;sensor_type;location;lat;lon;timestamp;temperature;humidity
21104;DHT22;10710;53.398;-1.514;2023-03-01T00:04:10;7.40;99.90
21104;DHT22;10710;53.398;-1.514;2023-03-01T00:06:35;7.50;99.90
21104;DHT22;10710;53.398;-1.514;2023-03-01T00:09:01;7.50;99.90
21104;DHT22;10710;53.398;-1.514;2023-03-01T00:11:29;7.30;99.90
21104;DHT22;10710;53.398;-1.514;2023-03-01T00:13:57;7.30;99.90
21104;DHT22;10710;53.398;-1.514;2023-03-01T00:16:31;7.10;99.90
21104;DHT22;10710;53.398;-1.514;2023-03-01T00:18:59;7.20;99.90
21104;DHT22;10710;53.398;-1.514;2023-03-01T00:21:25;7.10;99.90
21104;DHT22;10710;53.398;-1.514;2023-03-01T00:23:51;7.00;99.90
21104;DHT22;10710;53.398;-1.514;2023-03-01T00:26:18;7.10;99.90
21104;DHT22;10710;53.398;-1.514;2023-03-01T00:28:45;7.10;99.90
21104;DHT22;10710;53.398;-1.514;2023-03-01T00:31:19;7.20;99.90
21104;DHT22;10710;53.398;-1.514;2023-03-01T00:33:45;7.20;99.90
21104;DHT22;10710;53.398;-1.514;2023-03-01T00:36:12;7.20;99.90
21104;DHT22;10710;53.398;-1.514;2023-03-01T00:38:41;7.30;99.90
21104;DHT22;10710;53.398;-1.514;2023-03-01T00:41:10;7.20;99.90
21104;DHT22;10710;53.398;-1.514;2023-03-01T00:43:37;7.20;99.90
21104;DHT22;10710;53.398;-1.514;2023-03-01T00:46:08;7.10;99.90
21104;DHT22;10710;53.398;-1.514;2023-03-01T00:48:35;7.00;99.90
21104;DHT22;10710;53.398;-1.514;2023-03-01T00:53:41;6.90;99.90
21104;DHT22;10710;53.398;-1.514;2023-03-01T00:56:08;6.80;99.90
21104;DHT22;10710;53.398;-1.514;2023-03-01T00:58:34;6.70;99.90
21104;DHT22;10710;53.398;-1.514;2023-03-01T01:01:00;6.90;99.90
21104;DHT22;10710;53.398;-1.514;2023-03-01T01:03:26;7.00;99.90
21104;DHT22;10710;53.398;-1.514;2023-03-01T01:05:53;7.00;99.90
21104;DHT22;10710;53.398;-1.514;2023-03-01T01:08:20;6.90;99.90
21104;DHT22;10710;53.398;-1.514;2023-03-01T01:10:46;7.10;99.90
21104;DHT22;10710;53.398;-1.514;2023-03-01T01:13:12;7.10;99.90
21104;DHT22;10710;53.398;-1.514;2023-03-01T01:15:39;7.20;99.90
21104;DHT22;10710;53.398;-1.514;2023-03-01T01:18:05;7.00;99.90
21104;DHT22;10710;53.398;-1.514;2023-03-01T01:20:49;7.00;99.90
21104;DHT22;10710;53.398;-1.514;2023-03-01T01:23:14;7.10;99.90
21104;DHT22;10710;53.398;-1.514;2023-03-01T01:25:40;7.10;99.90
21104;DHT22;10710;53.398;-1.514;2023-03-01T01:28:06;7.10;99.90
21104;DHT22;10710;53.398;-1.514;2023-03-01T01:30:32;7.00;99.90
21104;DHT22;10710;53.398;-1.514;2023-03-01T01:32:57;7.10;99.90
21104;DHT22;10710;53.398;-1.514;2023-03-01T01:35:23;7.10;99.90
21104;DHT22;10710;53.398;-1.514;2023-03-01T01:37:49;7.00;99.90
21104;DHT22;10710;53.398;-1.514;2023-03-01T01:40:14;6.90;99.90
21104;DHT22;10710;53.398;-1.514;2023-03-01T01:42:40;6.90;99.90
21104;DHT22;10710;53.398;-1.514;2023-03-01T01:45:28;6.90;99.90
21104;DHT22;10710;53.398;-1.514;2023-03-01T01:47:58;6.90;99.90
21104;DHT22;10710;53.398;-1.514;2023-03-01T01:50:25;7.00;99.90
21104;DHT22;10710;53.398;-1.514;2023-03-01T01:52:53;7.00;99.90
21104;DHT22;10710;53.398;-1.514;2023-03-01T01:55:24;6.90;99.90
21104;DHT22;10710;53.398;-1.514;2023-03-01T01:57:56;6.90;99.90
21104;DHT22;10710;53.398;-1.514;2023-03-01T02:00:28;7.00;99.90
21104;DHT22;10710;53.398;-1.514;2023-03-01T02:03:00;7.10;99.90
21104;DHT22;10710;53.398;-1.514;2023-03-01T02:07:53;6.90;99.90
21104;DHT22;10710;53.398;-1.514;2023-03-01T02:10:20;6.80;99.90
21104;DHT22;10710;53.398;-1.514;2023-03-01T02:12:47;6.90;99.90
21104;DHT22;10710;53.398;-1.514;2023-03-01T02:15:13;6.80;99.90
21104;DHT22;10710;53.398;-1.514;2023-03-01T02:17:39;6.80;99.90
21104;DHT22;10710;53.398;-1.514;2023-03-01T02:22:55;6.90;99.90
21104;DHT22;10710;53.398;-1.514;2023-03-01T02:28:21;6.80;99.90
21104;DHT22;10710;53.398;-1.514;2023-03-01T02:30:49;6.90;99.90
21104;DHT22;10710;53.398;-1.514;2023-03-01T02:33:36;6.90;99.90
21104;DHT22;10710;53.398;-1.514;2023-03-01T02:36:12;6.80;99.90
21104;DHT22;10710;53.398;-1.514;2023-03-01T02:38:40;6.70;99.90
21104;DHT22;10710;53.398;-1.514;2023-03-01T02:41:08;6.70;99.90
21104;DHT22;10710;53.398;-1.514;2023-03-01T02:43:34;6.80;99.90
21104;DHT22;10710;53.398;-1.514;2023-03-01T02:46:13;6.80;99.90
21104;DHT22;10710;53.398;-1.514;2023-03-01T02:48:47;6.80;99.90
21104;DHT22;10710;53.398;-1.514;2023-03-01T02:52:00;6.80;99.90
21104;DHT22;10710;53.398;-1.514;2023-03-01T02:56:44;6.80;99.90
21104;DHT22;10710;53.398;-1.514;2023-03-01T02:59:11;7.00;99.90
21104;DHT22;10710;53.398;-1.514;2023-03-01T03:01:37;7.00;99.90
21104;DHT22;10710;53.398;-1.514;2023-03-01T03:04:15;7.10;99.90
21104;DHT22;10710;53.398;-1.514;2023-03-01T03:06:45;7.10;99.90
21104;DHT22;10710;53.398;-1.514;2023-03-01T03:09:12;7.10;99.90
21104;DHT22;10710;53.398;-1.514;2023-03-01T03:11:38;7.00;99.90
21104;DHT22;10710;53.398;-1.514;2023-03-01T03:14:13;7.00;99.90
21104;DHT22;10710;53.398;-1.514;2023-03-01T03:16:48;7.00;99.90
21104;DHT22;10710;53.398;-1.514;2023-03-01T03:19:14;7.00;99.90
21104;DHT22;10710;53.398;-1.514;2023-03-01T03:21:40;7.00;99.90
21104;DHT22;10710;53.398;-1.514;2023-03-01T03:24:05;7.00;99.90
21104;DHT22;10710;53.398;-1.514;2023-03-01T03:26:32;7.00;99.90
21104;DHT22;10710;53.398;-1.514;2023-03-01T03:28:58;7.00;99.90
21104;DHT22;10710;53.398;-1.514;2023-03-01T03:31:23;6.90;99.90
21104;DHT22;10710;53.398;-1.514;2023-03-01T03:33:49;6.80;99.90
21104;DHT22;10710;53.398;-1.514;2023-03-01T03:36:20;6.70;99.90
21104;DHT22;10710;53.398;-1.514;2023-03-01T03:38:46;6.70;99.90
21104;DHT22;10710;53.398;-1.514;2023-03-01T03:41:13;6.90;99.90
21104;DHT22;10710;53.398;-1.514;2023-03-01T03:43:39;7.00;99.90
21104;DHT22;10710;53.398;-1.514;2023-03-01T03:46:06;6.90;99.90
21104;DHT22;10710;53.398;-1.514;2023-03-01T03:48:39;6.90;99.90
21104;DHT22;10710;53.398;-1.514;2023-03-01T03:51:05;6.90;99.90
21104;DHT22;10710;53.398;-1.514;2023-03-01T03:53:31;6.90;99.90
21104;DHT22;10710;53.398;-1.514;2023-03-01T03:55:57;6.90;99.90
21104;DHT22;10710;53.398;-1.514;2023-03-01T03:58:24;6.90;99.90
21104;DHT22;10710;53.398;-1.514;2023-03-01T04:00:55;6.90;99.90
21104;DHT22;10710;53.398;-1.514;2023-03-01T04:03:22;6.80;99.90
21104;DHT22;10710;53.398;-1.514;2023-03-01T04:05:49;6.70;99.90
21104;DHT22;10710;53.398;-1.514;2023-03-01T04:08:23;6.60;99.90
21104;DHT22;10710;53.398;-1.514;2023-03-01T04:10:51;6.50;99.90
21104;DHT22;10710;53.398;-1.514;2023-03-01T04:13:21;6.60;99.90
21104;DHT22;10710;53.398;-1.514;2023-03-01T04:15:51;6.60;99.90
21104;DHT22;10710;53.398;-1.514;2023-03-01T04:18:19;6.60;99.90
21104;DHT22;10710;53.398;-1.514;2023-03-01T04:20:46;6.50;99.90
21104;DHT22;10710;53.398;-1.514;2023-03-01T04:23:14;6.60;99.90
21104;DHT22;10710;53.398;-1.514;2023-03-01T04:25:54;6.60;99.90
21104;DHT22;10710;53.398;-1.514;2023-03-01T04:28:28;6.70;99.90
21104;DHT22;10710;53.398;-1.514;2023-03-01T04:30:56;6.80;99.90
21104;DHT22;10710;53.398;-1.514;2023-03-01T04:33:24;6.70;99.90
21104;DHT22;10710;53.398;-1.514;2023-03-01T04:35:49;6.70;99.90
21104;DHT22;10710;53.398;-1.514;2023-03-01T04:38:17;6.60;99.90
21104;DHT22;10710;53.398;-1.514;2023-03-01T04:40:43;6.70;99.90
21104;DHT22;10710;53.398;-1.514;2023-03-01T04:43:10;6.70;99.90
21104;DHT22;10710;53.398;-1.514;2023-03-01T04:45:36;6.70;99.90
21104;DHT22;10710;53.398;-1.514;2023-03-01T04:48:02;6.70;99.90
21104;DHT22;10710;53.398;-1.514;2023-03-01T04:50:28;6.80;99.90
21104;DHT22;10710;53.398;-1.514;2023-03-01T04:52:55;6.70;99.90
21104;DHT22;10710;53.398;-1.514;2023-03-01T04:55:25;6.80;99.90
21104;DHT22;10710;53.398;-1.514;2023-03-01T04:57:51;6.80;99.90
21104;DHT22;10710;53.398;-1.514;2023-03-01T05:00:18;6.80;99.90
21104;DHT22;10710;53.398;-1.514;2023-03-01T05:02:47;6.70;99.90
21104;DHT22;10710;53.398;-1.514;2023-03-01T05:05:15;6.70;99.90
21104;DHT22;10710;53.398;-1.514;2023-03-01T05:07:40;6.70;99.90
21104;DHT22;10710;53.398;-1.514;2023-03-01T05:10:06;6.70;99.90
21104;DHT22;10710;53.398;-1.514;2023-03-01T05:12:32;6.70;99.90
21104;DHT22;10710;53.398;-1.514;2023-03-01T05:14:58;6.70;99.90
21104;DHT22;10710;53.398;-1.514;2023-03-01T05:17:24;6.70;99.90
21104;DHT22;10710;53.398;-1.514;2023-03-01T05:19:49;6.70;99.90
21104;DHT22;10710;53.398;-1.514;2023-03-01T05:22:15;6.60;99.90
21104;DHT22;10710;53.398;-1.514;2023-03-01T05:24:42;6.60;99.90
21104;DHT22;10710;53.398;-1.514;2023-03-01T05:27:07;6.60;99.90
21104;DHT22;10710;53.398;-1.514;2023-03-01T05:29:33;6.70;99.90
21104;DHT22;10710;53.398;-1.514;2023-03-01T05:32:02;6.70;99.90
21104;DHT22;10710;53.398;-1.514;2023-03-01T05:34:33;6.60;99.90
21104;DHT22;10710;53.398;-1.514;2023-03-01T05:37:00;6.60;99.90
21104;DHT22;10710;53.398;-1.514;2023-03-01T05:39:28;6.50;99.90
21104;DHT22;10710;53.398;-1.514;2023-03-01T05:41:59;6.30;99.90
21104;DHT22;10710;53.398;-1.514;2023-03-01T05:44:26;6.40;99.90
21104;DHT22;10710;53.398;-1.514;2023-03-01T05:46:52;6.40;99.90
21104;DHT22;10710;53.398;-1.514;2023-03-01T05:49:19;6.40;99.90
21104;DHT22;10710;53.398;-1.514;2023-03-01T05:51:50;6.40;99.90
21104;DHT22;10710;53.398;-1.514;2023-03-01T05:54:16;6.40;99.90
21104;DHT22;10710;53.398;-1.514;2023-03-01T05:56:41;6.30;99.90
21104;DHT22;10710;53.398;-1.514;2023-03-01T05:59:07;6.30;99.90
21104;DHT22;10710;53.398;-1.514;2023-03-01T06:01:34;6.50;99.90
21104;DHT22;10710;53.398;-1.514;2023-03-01T06:04:00;6.40;99.90
21104;DHT22;10710;53.398;-1.514;2023-03-01T06:06:27;6.50;99.90
21104;DHT22;10710;53.398;-1.514;2023-03-01T06:08:53;6.40;99.90
21104;DHT22;10710;53.398;-1.514;2023-03-01T06:11:19;6.40;99.90
21104;DHT22;10710;53.398;-1.514;2023-03-01T06:13:45;6.50;99.90
21104;DHT22;10710;53.398;-1.514;2023-03-01T06:16:12;6.40;99.90
21104;DHT22;10710;53.398;-1.514;2023-03-01T06:18:39;6.40;99.90
21104;DHT22;10710;53.398;-1.514;2023-03-01T06:21:06;6.40;99.90
21104;DHT22;10710;53.398;-1.514;2023-03-01T06:23:33;6.40;99.90
21104;DHT22;10710;53.398;-1.514;2023-03-01T06:25:58;6.50;99.90
21104;DHT22;10710;53.398;-1.514;2023-03-01T06:28:25;6.50;99.90
21104;DHT22;10710;53.398;-1.514;2023-03-01T06:30:51;6.50;99.90
21104;DHT22;10710;53.398;-1.514;2023-03-01T06:33:18;6.50;99.90
21104;DHT22;10710;53.398;-1.514;2023-03-01T06:35:46;6.50;99.90
21104;DHT22;10710;53.398;-1.514;2023-03-01T06:38:12;6.50;99.90
21104;DHT22;10710;53.398;-1.514;2023-03-01T06:40:40;6.50;99.90
21104;DHT22;10710;53.398;-1.514;2023-03-01T06:43:07;6.40;99.90
21104;DHT22;10710;53.398;-1.514;2023-03-01T06:45:33;6.40;99.90
21104;DHT22;10710;53.398;-1.514;2023-03-01T06:48:06;6.50;99.90
21104;DHT22;10710;53.398;-1.514;2023-03-01T06:50:34;6.50;99.90
21104;DHT22;10710;53.398;-1.514;2023-03-01T06:53:00;6.50;99.90
21104;DHT22;10710;53.398;-1.514;2023-03-01T06:55:25;6.40;99.90
21104;DHT22;10710;53.398;-1.514;2023-03-01T06:57:59;6.50;99.90
21104;DHT22;10710;53.398;-1.514;2023-03-01T07:00:25;6.60;99.90
21104;DHT22;10710;53.398;-1.514;2023-03-01T07:02:52;6.70;99.90
21104;DHT22;10710;53.398;-1.514;2023-03-01T07:05:17;6.50;99.90
21104;DHT22;10710;53.398;-1.514;2023-03-01T07:07:43;6.50;99.90
21104;DHT22;10710;53.398;-1.514;2023-03-01T07:10:09;6.50;99.90
21104;DHT22;10710;53.398;-1.514;2023-03-01T07:12:35;6.50;99.90
21104;DHT22;10710;53.398;-1.514;2023-03-01T07:15:01;6.60;99.90
21104;DHT22;10710;53.398;-1.514;2023-03-01T07:17:26;6.60;99.90
21104;DHT22;10710;53.398;-1.514;2023-03-01T07:19:52;6.60;99.90
21104;DHT22;10710;53.398;-1.514;2023-03-01T07:22:18;6.70;99.90
21104;DHT22;10710;53.398;-1.514;2023-03-01T07:24:44;6.60;99.90
21104;DHT22;10710;53.398;-1.514;2023-03-01T07:27:09;6.60;99.90
21104;DHT22;10710;53.398;-1.514;2023-03-01T07:29:35;6.60;99.90
21104;DHT22;10710;53.398;-1.514;2023-03-01T07:32:05;6.60;99.90
21104;DHT22;10710;53.398;-1.514;2023-03-01T07:34:31;6.70;99.90
21104;DHT22;10710;53.398;-1.514;2023-03-01T07:36:56;6.70;99.90
21104;DHT22;10710;53.398;-1.514;2023-03-01T07:39:22;6.70;99.90
21104;DHT22;10710;53.398;-1.514;2023-03-01T07:41:51;6.70;99.90
21104;DHT22;10710;53.398;-1.514;2023-03-01T07:44:17;6.60;99.90
21104;DHT22;10710;53.398;-1.514;2023-03-01T07:46:43;6.70;99.90
21104;DHT22;10710;53.398;-1.514;2023-03-01T07:49:09;6.70;99.90
21104;DHT22;10710;53.398;-1.514;2023-03-01T07:51:35;6.70;99.90
21104;DHT22;10710;53.398;-1.514;2023-03-01T07:54:00;6.60;99.90
21104;DHT22;10710;53.398;-1.514;2023-03-01T07:56:26;6.60;99.90
21104;DHT22;10710;53.398;-1.514;2023-03-01T07:58:52;6.70;99.90
21104;DHT22;10710;53.398;-1.514;2023-03-01T08:01:19;6.70;99.90
21104;DHT22;10710;53.398;-1.514;2023-03-01T08:03:45;6.70;99.90
21104;DHT22;10710;53.398;-1.514;2023-03-01T08:06:13;6.70;99.90
21104;DHT22;10710;53.398;-1.514;2023-03-01T08:08:40;6.70;99.90
21104;DHT22;10710;53.398;-1.514;2023-03-01T08:11:07;6.70;99.90
21104;DHT22;10710;53.398;-1.514;2023-03-01T08:13:33;6.60;99.90
21104;DHT22;10710;53.398;-1.514;2023-03-01T08:16:04;6.60;99.90
21104;DHT22;10710;53.398;-1.514;2023-03-01T08:18:30;6.70;99.90
21104;DHT22;10710;53.398;-1.514;2023-03-01T08:20:56;6.80;99.90
21104;DHT22;10710;53.398;-1.514;2023-03-01T08:23:26;6.70;99.90
21104;DHT22;10710;53.398;-1.514;2023-03-01T08:25:51;6.80;99.90
21104;DHT22;10710;53.398;-1.514;2023-03-01T08:28:18;6.80;99.90
21104;DHT22;10710;53.398;-1.514;2023-03-01T08:30:44;6.80;99.90
21104;DHT22;10710;53.398;-1.514;2023-03-01T08:33:09;6.90;99.90
21104;DHT22;10710;53.398;-1.514;2023-03-01T08:35:35;7.00;99.90
21104;DHT22;10710;53.398;-1.514;2023-03-01T08:38:01;7.00;99.90
21104;DHT22;10710;53.398;-1.514;2023-03-01T08:40:26;7.00;99.90
21104;DHT22;10710;53.398;-1.514;2023-03-01T08:42:52;7.00;99.90
21104;DHT22;10710;53.398;-1.514;2023-03-01T08:45:18;7.10;99.90
21104;DHT22;10710;53.398;-1.514;2023-03-01T08:47:44;7.00;99.90
21104;DHT22;10710;53.398;-1.514;2023-03-01T08:50:11;7.10;99.90
21104;DHT22;10710;53.398;-1.514;2023-03-01T08:52:36;7.10;99.90
21104;DHT22;10710;53.398;-1.514;2023-03-01T08:55:02;7.10;99.90
21104;DHT22;10710;53.398;-1.514;2023-03-01T08:57:28;7.10;99.90
21104;DHT22;10710;53.398;-1.514;2023-03-01T08:59:53;7.10;99.90
21104;DHT22;10710;53.398;-1.514;2023-03-01T09:02:21;7.20;99.90
21104;DHT22;10710;53.398;-1.514;2023-03-01T09:04:47;7.40;99.90
21104;DHT22;10710;53.398;-1.514;2023-03-01T09:07:13;7.40;99.90
21104;DHT22;10710;53.398;-1.514;2023-03-01T09:09:38;7.50;99.90
21104;DHT22;10710;53.398;-1.514;2023-03-01T09:12:04;7.60;99.90
21104;DHT22;10710;53.398;-1.514;2023-03-01T09:14:31;7.60;99.90
21104;DHT22;10710;53.398;-1.514;2023-03-01T09:16:56;7.60;99.90
21104;DHT22;10710;53.398;-1.514;2023-03-01T09:19:22;7.50;99.90
21104;DHT22;10710;53.398;-1.514;2023-03-01T09:21:48;7.50;99.90
21104;DHT22;10710;53.398;-1.514;2023-03-01T09:24:23;7.40;99.90
21104;DHT22;10710;53.398;-1.514;2023-03-01T09:26:50;7.40;99.90
21104;DHT22;10710;53.398;-1.514;2023-03-01T09:29:18;7.30;99.90
21104;DHT22;10710;53.398;-1.514;2023-03-01T09:31:43;7.50;99.90
21104;DHT22;10710;53.398;-1.514;2023-03-01T09:34:09;7.60;99.90
21104;DHT22;10710;53.398;-1.514;2023-03-01T09:36:35;7.80;99.90
21104;DHT22;10710;53.398;-1.514;2023-03-01T09:39:01;7.90;99.90
21104;DHT22;10710;53.398;-1.514;2023-03-01T09:46:40;8.00;99.90
21104;DHT22;10710;53.398;-1.514;2023-03-01T09:49:14;8.00;99.90
21104;DHT22;10710;53.398;-1.514;2023-03-01T09:51:43;8.30;99.90
21104;DHT22;10710;53.398;-1.514;2023-03-01T09:54:14;8.20;99.90
21104;DHT22;10710;53.398;-1.514;2023-03-01T09:57:01;8.10;99.90
21104;DHT22;10710;53.398;-1.514;2023-03-01T09:59:48;8.20;99.90
21104;DHT22;10710;53.398;-1.514;2023-03-01T10:05:40;8.00;99.90
21104;DHT22;10710;53.398;-1.514;2023-03-01T10:08:24;7.90;99.90
21104;DHT22;10710;53.398;-1.514;2023-03-01T10:10:52;8.00;99.90
21104;DHT22;10710;53.398;-1.514;2023-03-01T10:13:27;8.20;99.90
21104;DHT22;10710;53.398;-1.514;2023-03-01T10:15:56;8.40;99.90
21104;DHT22;10710;53.398;-1.514;2023-03-01T10:18:26;8.20;99.90
21104;DHT22;10710;53.398;-1.514;2023-03-01T10:20:57;8.30;99.90
21104;DHT22;10710;53.398;-1.514;2023-03-01T10:23:25;8.30;99.90
21104;DHT22;10710;53.398;-1.514;2023-03-01T10:31:14;8.50;99.90
21104;DHT22;10710;53.398;-1.514;2023-03-01T10:33:42;8.60;99.90
21104;DHT22;10710;53.398;-1.514;2023-03-01T10:36:08;8.70;99.90
21104;DHT22;10710;53.398;-1.514;2023-03-01T10:38:55;8.70;99.90
21104;DHT22;10710;53.398;-1.514;2023-03-01T10:41:24;8.60;99.90
21104;DHT22;10710;53.398;-1.514;2023-03-01T10:43:52;8.50;99.90
21104;DHT22;10710;53.398;-1.514;2023-03-01T10:46:35;8.40;99.90
21104;DHT22;10710;53.398;-1.514;2023-03-01T10:49:12;8.50;99.90
21104;DHT22;10710;53.398;-1.514;2023-03-01T10:51:43;8.50;99.90
21104;DHT22;10710;53.398;-1.514;2023-03-01T10:56:51;8.60;99.90
21104;DHT22;10710;53.398;-1.514;2023-03-01T10:59:33;8.50;99.90
21104;DHT22;10710;53.398;-1.514;2023-03-01T11:07:55;8.50;99.90
21104;DHT22;10710;53.398;-1.514;2023-03-01T11:12:52;9.00;99.90
21104;DHT22;10710;53.398;-1.514;2023-03-01T11:15:27;9.20;99.90
21104;DHT22;10710;53.398;-1.514;2023-03-01T11:17:54;9.30;99.90
21104;DHT22;10710;53.398;-1.514;2023-03-01T11:20:36;9.20;99.90
21104;DHT22;10710;53.398;-1.514;2023-03-01T11:23:10;9.10;99.90
21104;DHT22;10710;53.398;-1.514;2023-03-01T11:25:47;9.00;99.90
21104;DHT22;10710;53.398;-1.514;2023-03-01T11:28:17;8.80;99.90
21104;DHT22;10710;53.398;-1.514;2023-03-01T11:31:08;8.70;99.90
21104;DHT22;10710;53.398;-1.514;2023-03-01T11:33:55;8.90;99.90
21104;DHT22;10710;53.398;-1.514;2023-03-01T11:39:23;8.90;99.90
21104;DHT22;10710;53.398;-1.514;2023-03-01T11:44:36;8.90;99.90
21104;DHT22;10710;53.398;-1.514;2023-03-01T11:49:53;8.90;99.90
21104;DHT22;10710;53.398;-1.514;2023-03-01T12:01:02;9.20;99.90
21104;DHT22;10710;53.398;-1.514;2023-03-01T12:03:42;9.20;99.90
21104;DHT22;10710;53.398;-1.514;2023-03-01T12:09:15;9.40;99.90
21104;DHT22;10710;53.398;-1.514;2023-03-01T12:20:11;9.40;99.90
21104;DHT22;10710;53.398;-1.514;2023-03-01T12:22:44;9.60;99.90
21104;DHT22;10710;53.398;-1.514;2023-03-01T12:28:39;9.90;99.90
21104;DHT22;10710;53.398;-1.514;2023-03-01T12:47:30;10.00;99.90
21104;DHT22;10710;53.398;-1.514;2023-03-01T12:50:01;9.90;99.90
21104;DHT22;10710;53.398;-1.514;2023-03-01T12:52:54;9.70;99.90
21104;DHT22;10710;53.398;-1.514;2023-03-01T13:01:27;9.70;99.90
21104;DHT22;10710;53.398;-1.514;2023-03-01T13:04:35;9.40;99.90
21104;DHT22;10710;53.398;-1.514;2023-03-01T13:09:51;9.60;99.90
21104;DHT22;10710;53.398;-1.514;2023-03-01T13:12:47;9.90;99.90
21104;DHT22;10710;53.398;-1.514;2023-03-01T13:17:51;10.30;99.90
21104;DHT22;10710;53.398;-1.514;2023-03-01T13:20:29;10.40;99.90
21104;DHT22;10710;53.398;-1.514;2023-03-01T13:26:01;10.40;99.90
21104;DHT22;10710;53.398;-1.514;2023-03-01T13:34:01;9.60;99.90
21104;DHT22;10710;53.398;-1.514;2023-03-01T13:41:51;9.50;99.90
21104;DHT22;10710;53.398;-1.514;2023-03-01T13:44:21;9.40;99.90
21104;DHT22;10710;53.398;-1.514;2023-03-01T13:47:01;9.50;99.90
21104;DHT22;10710;53.398;-1.514;2023-03-01T13:52:43;9.80;99.90
21104;DHT22;10710;53.398;-1.514;2023-03-01T13:55:23;9.90;99.90
21104;DHT22;10710;53.398;-1.514;2023-03-01T13:57:57;10.00;99.90
21104;DHT22;10710;53.398;-1.514;2023-03-01T14:00:36;10.10;99.90
21104;DHT22;10710;53.398;-1.514;2023-03-01T14:03:22;10.00;99.90
21104;DHT22;10710;53.398;-1.514;2023-03-01T14:06:09;10.20;99.90
21104;DHT22;10710;53.398;-1.514;2023-03-01T14:08:37;10.20;99.90
21104;DHT22;10710;53.398;-1.514;2023-03-01T14:11:28;10.10;99.90
21104;DHT22;10710;53.398;-1.514;2023-03-01T14:19:31;9.80;99.90
21104;DHT22;10710;53.398;-1.514;2023-03-01T14:24:56;9.60;99.90
21104;DHT22;10710;53.398;-1.514;2023-03-01T14:27:50;9.50;99.90
21104;DHT22;10710;53.398;-1.514;2023-03-01T14:32:38;9.50;99.90
21104;DHT22;10710;53.398;-1.514;2023-03-01T14:35:40;9.30;99.90
21104;DHT22;10710;53.398;-1.514;2023-03-01T14:38:05;9.60;99.90
21104;DHT22;10710;53.398;-1.514;2023-03-01T14:40:34;9.90;99.90
21104;DHT22;10710;53.398;-1.514;2023-03-01T14:43:02;10.10;99.90
21104;DHT22;10710;53.398;-1.514;2023-03-01T14:45:33;9.90;99.90
21104;DHT22;10710;53.398;-1.514;2023-03-01T14:48:01;9.80;99.90
21104;DHT22;10710;53.398;-1.514;2023-03-01T14:50:31;9.50;99.90
21104;DHT22;10710;53.398;-1.514;2023-03-01T14:53:01;8.90;99.90
21104;DHT22;10710;53.398;-1.514;2023-03-01T14:55:38;8.50;99.90
21104;DHT22;10710;53.398;-1.514;2023-03-01T14:58:13;8.60;99.90
21104;DHT22;10710;53.398;-1.514;2023-03-01T15:00:48;8.60;99.90
21104;DHT22;10710;53.398;-1.514;2023-03-01T15:03:25;9.30;99.90
21104;DHT22;10710;53.398;-1.514;2023-03-01T15:05:51;9.90;99.90
21104;DHT22;10710;53.398;-1.514;2023-03-01T15:08:21;10.50;99.90
21104;DHT22;10710;53.398;-1.514;2023-03-01T15:11:38;10.90;99.90
21104;DHT22;10710;53.398;-1.514;2023-03-01T15:14:38;11.00;99.90
21104;DHT22;10710;53.398;-1.514;2023-03-01T15:17:22;11.10;99.90
21104;DHT22;10710;53.398;-1.514;2023-03-01T15:19:52;10.40;99.90
21104;DHT22;10710;53.398;-1.514;2023-03-01T15:22:17;10.20;99.90
21104;DHT22;10710;53.398;-1.514;2023-03-01T15:24:50;10.10;99.90
21104;DHT22;10710;53.398;-1.514;2023-03-01T15:27:18;9.80;99.90
21104;DHT22;10710;53.398;-1.514;2023-03-01T15:30:17;9.90;99.90
21104;DHT22;10710;53.398;-1.514;2023-03-01T15:32:45;9.90;99.90
21104;DHT22;10710;53.398;-1.514;2023-03-01T15:38:00;9.90;99.90
21104;DHT22;10710;53.398;-1.514;2023-03-01T15:40:30;9.60;99.90
21104;DHT22;10710;53.398;-1.514;2023-03-01T15:43:01;9.50;99.90
21104;DHT22;10710;53.398;-1.514;2023-03-01T15:45:28;9.40;99.90
21104;DHT22;10710;53.398;-1.514;2023-03-01T15:47:57;9.10;99.90
21104;DHT22;10710;53.398;-1.514;2023-03-01T15:50:27;9.00;99.90
21104;DHT22;10710;53.398;-1.514;2023-03-01T15:52:54;8.90;99.90
21104;DHT22;10710;53.398;-1.514;2023-03-01T15:55:29;8.90;99.90
21104;DHT22;10710;53.398;-1.514;2023-03-01T15:57:59;8.90;99.90
21104;DHT22;10710;53.398;-1.514;2023-03-01T16:00:26;8.80;99.90
21104;DHT22;10710;53.398;-1.514;2023-03-01T16:02:52;8.80;99.90
21104;DHT22;10710;53.398;-1.514;2023-03-01T16:07:49;8.40;99.90
21104;DHT22;10710;53.398;-1.514;2023-03-01T16:10:16;8.50;99.90
21104;DHT22;10710;53.398;-1.514;2023-03-01T16:12:42;8.40;99.90
21104;DHT22;10710;53.398;-1.514;2023-03-01T16:15:18;8.50;99.90
21104;DHT22;10710;53.398;-1.514;2023-03-01T16:17:44;8.50;99.90
21104;DHT22;10710;53.398;-1.514;2023-03-01T16:20:10;8.40;99.90
21104;DHT22;10710;53.398;-1.514;2023-03-01T16:22:36;8.40;99.90
21104;DHT22;10710;53.398;-1.514;2023-03-01T16:25:02;8.50;99.90
21104;DHT22;10710;53.398;-1.514;2023-03-01T16:27:28;8.60;99.90
21104;DHT22;10710;53.398;-1.514;2023-03-01T16:29:54;8.60;99.90
21104;DHT22;10710;53.398;-1.514;2023-03-01T16:32:19;8.60;99.90
21104;DHT22;10710;53.398;-1.514;2023-03-01T16:34:45;8.60;99.90
21104;DHT22;10710;53.398;-1.514;2023-03-01T16:37:15;8.60;99.90
21104;DHT22;10710;53.398;-1.514;2023-03-01T16:39:40;8.50;99.90
21104;DHT22;10710;53.398;-1.514;2023-03-01T16:42:06;8.50;99.90
21104;DHT22;10710;53.398;-1.514;2023-03-01T16:44:32;8.40;99.90
21104;DHT22;10710;53.398;-1.514;2023-03-01T16:46:58;8.50;99.90
21104;DHT22;10710;53.398;-1.514;2023-03-01T16:49:24;8.40;99.90
21104;DHT22;10710;53.398;-1.514;2023-03-01T16:51:51;8.40;99.90
21104;DHT22;10710;53.398;-1.514;2023-03-01T16:54:19;8.40;99.90
21104;DHT22;10710;53.398;-1.514;2023-03-01T16:56:45;8.40;99.90
21104;DHT22;10710;53.398;-1.514;2023-03-01T16:59:11;8.40;99.90
21104;DHT22;10710;53.398;-1.514;2023-03-01T17:01:36;8.40;99.90
21104;DHT22;10710;53.398;-1.514;2023-03-01T17:04:06;8.30;99.90
21104;DHT22;10710;53.398;-1.514;2023-03-01T17:06:35;8.10;99.90
21104;DHT22;10710;53.398;-1.514;2023-03-01T17:09:01;8.00;99.90
21104;DHT22;10710;53.398;-1.514;2023-03-01T17:11:26;8.00;99.90
21104;DHT22;10710;53.398;-1.514;2023-03-01T17:13:52;8.10;99.90
21104;DHT22;10710;53.398;-1.514;2023-03-01T17:16:19;8.10;99.90
21104;DHT22;10710;53.398;-1.514;2023-03-01T17:18:45;8.10;99.90
21104;DHT22;10710;53.398;-1.514;2023-03-01T17:21:12;8.10;99.90
21104;DHT22;10710;53.398;-1.514;2023-03-01T17:23:40;8.00;99.90
21104;DHT22;10710;53.398;-1.514;2023-03-01T17:26:07;7.90;99.90
21104;DHT22;10710;53.398;-1.514;2023-03-01T17:28:34;7.90;99.90
21104;DHT22;10710;53.398;-1.514;2023-03-01T17:31:01;7.80;99.90
21104;DHT22;10710;53.398;-1.514;2023-03-01T17:33:27;7.80;99.90
21104;DHT22;10710;53.398;-1.514;2023-03-01T17:35:58;7.90;99.90
21104;DHT22;10710;53.398;-1.514;2023-03-01T17:38:24;7.90;99.90
21104;DHT22;10710;53.398;-1.514;2023-03-01T17:40:50;8.00;99.90
21104;DHT22;10710;53.398;-1.514;2023-03-01T17:43:17;8.00;99.90
21104;DHT22;10710;53.398;-1.514;2023-03-01T17:45:45;8.00;99.90
21104;DHT22;10710;53.398;-1.514;2023-03-01T17:48:16;8.00;99.90
21104;DHT22;10710;53.398;-1.514;2023-03-01T17:50:42;8.00;99.90
21104;DHT22;10710;53.398;-1.514;2023-03-01T17:53:08;7.80;99.90
21104;DHT22;10710;53.398;-1.514;2023-03-01T17:55:40;7.80;99.90
21104;DHT22;10710;53.398;-1.514;2023-03-01T17:58:06;7.80;99.90